createdAt,value
2023-02-16T00:01:16.184Z,30.02
2023-02-16T00:03:43.864Z,38.30
2023-02-16T00:06:15.842Z,30.42
2023-02-16T00:08:47.597Z,30.20
2023-02-16T00:14:01.731Z,35.53
2023-02-16T00:16:29.582Z,33.13
2023-02-16T00:18:57.146Z,31.60
2023-02-16T00:21:24.731Z,36.03
2023-02-16T00:23:52.401Z,32.67
2023-02-16T00:26:21.274Z,36.33
2023-02-16T00:28:52.945Z,32.45
2023-02-16T00:31:21.764Z,28.98
2023-02-16T00:33:50.782Z,31.20
2023-02-16T00:36:21.356Z,31.10
2023-02-16T00:38:48.950Z,31.00
2023-02-16T00:41:37.207Z,30.52
2023-02-16T00:44:06.588Z,28.33
2023-02-16T00:46:34.379Z,33.10
2023-02-16T00:49:02.459Z,34.75
2023-02-16T00:51:30.013Z,29.77
2023-02-16T00:53:57.550Z,31.50
2023-02-16T00:56:25.205Z,30.67
2023-02-16T00:58:53.406Z,28.08
2023-02-16T01:01:22.595Z,31.58
2023-02-16T01:03:50.153Z,30.92
2023-02-16T01:06:36.603Z,29.58
2023-02-16T01:09:38.108Z,29.88
2023-02-16T01:12:08.454Z,31.38
2023-02-16T01:14:38.129Z,30.80
2023-02-16T01:17:05.654Z,31.48
2023-02-16T01:19:33.181Z,29.20
2023-02-16T01:22:00.781Z,31.65
2023-02-16T01:24:29.013Z,28.83
2023-02-16T01:26:56.713Z,33.67
2023-02-16T01:29:24.253Z,32.05
2023-02-16T01:31:51.942Z,30.10
2023-02-16T01:34:19.587Z,31.80
2023-02-16T01:36:48.212Z,34.13
2023-02-16T01:39:17.445Z,34.50
2023-02-16T01:42:05.823Z,32.90
2023-02-16T01:44:43.747Z,32.67
2023-02-16T01:47:14.154Z,29.20
2023-02-16T01:49:41.750Z,30.38
2023-02-16T01:52:33.036Z,35.60
2023-02-16T01:55:07.800Z,33.72
2023-02-16T01:57:40.623Z,40.03
2023-02-16T02:00:11.020Z,33.15
2023-02-16T02:02:45.978Z,47.78
2023-02-16T02:05:36.692Z,30.52
2023-02-16T02:08:11.937Z,29.80
2023-02-16T02:10:44.159Z,29.35
2023-02-16T02:13:25.325Z,33.45
2023-02-16T02:15:53.295Z,28.92
2023-02-16T02:18:20.870Z,30.23
2023-02-16T02:21:17.051Z,29.73
2023-02-16T02:24:03.141Z,27.00
2023-02-16T02:26:40.631Z,28.13
2023-02-16T02:29:14.073Z,26.65
2023-02-16T02:32:00.810Z,26.50
2023-02-16T02:34:37.397Z,24.63
2023-02-16T02:37:34.148Z,25.10
2023-02-16T02:40:06.719Z,25.50
2023-02-16T02:42:38.537Z,26.85
2023-02-16T02:45:12.582Z,26.35
2023-02-16T02:47:44.648Z,25.33
2023-02-16T02:50:30.974Z,26.33
2023-02-16T02:52:59.896Z,23.15
2023-02-16T02:55:47.387Z,24.80
2023-02-16T02:58:34.370Z,22.35
2023-02-16T03:01:02.680Z,24.90
2023-02-16T03:03:38.872Z,23.50
2023-02-16T03:06:12.183Z,23.17
2023-02-16T03:08:40.945Z,23.58
2023-02-16T03:11:31.672Z,23.30
2023-02-16T03:14:01.297Z,22.85
2023-02-16T03:16:37.660Z,21.08
2023-02-16T03:19:25.591Z,21.13
2023-02-16T03:22:12.613Z,22.35
2023-02-16T03:24:59.357Z,25.42
2023-02-16T03:27:47.967Z,23.73
2023-02-16T03:30:16.801Z,19.92
2023-02-16T03:32:45.376Z,20.33
2023-02-16T03:35:13.011Z,25.17
2023-02-16T03:37:41.436Z,22.67
2023-02-16T03:40:28.513Z,20.42
2023-02-16T03:43:01.781Z,22.25
2023-02-16T03:45:29.509Z,22.50
2023-02-16T03:47:57.074Z,22.23
2023-02-16T03:50:27.002Z,23.92
2023-02-16T03:53:07.830Z,23.90
2023-02-16T03:55:43.127Z,22.57
2023-02-16T03:58:11.794Z,21.25
2023-02-16T04:00:39.577Z,23.33
2023-02-16T04:03:08.889Z,23.35
2023-02-16T04:05:36.840Z,21.60
2023-02-16T04:08:04.887Z,21.88
2023-02-16T04:10:32.467Z,23.55
2023-02-16T04:13:00.357Z,20.23
2023-02-16T04:15:29.887Z,22.88
2023-02-16T04:17:57.619Z,20.92
2023-02-16T04:20:27.021Z,24.77
2023-02-16T04:22:54.815Z,19.88
2023-02-16T04:25:22.372Z,20.98
2023-02-16T04:27:50.202Z,22.73
2023-02-16T04:30:19.417Z,24.77
2023-02-16T04:32:47.029Z,23.25
2023-02-16T04:35:14.633Z,21.25
2023-02-16T04:37:42.589Z,22.67
2023-02-16T04:40:13.468Z,20.52
2023-02-16T04:42:44.716Z,22.80
2023-02-16T04:45:12.566Z,21.85
2023-02-16T04:47:40.182Z,21.98
2023-02-16T04:50:08.237Z,22.10
2023-02-16T04:52:36.665Z,22.58
2023-02-16T04:55:05.569Z,22.25
2023-02-16T04:57:33.297Z,24.38
2023-02-16T05:00:00.966Z,20.60
2023-02-16T05:02:28.527Z,22.25
2023-02-16T05:04:56.119Z,20.88
2023-02-16T05:07:23.678Z,19.85
2023-02-16T05:09:51.703Z,21.08
2023-02-16T05:12:38.069Z,20.17
2023-02-16T05:15:06.321Z,21.13
2023-02-16T05:17:34.861Z,21.45
2023-02-16T05:20:02.424Z,20.35
2023-02-16T05:22:33.342Z,20.80
2023-02-16T05:25:01.388Z,21.85
2023-02-16T05:27:29.800Z,20.90
2023-02-16T05:29:58.166Z,21.02
2023-02-16T05:32:26.179Z,22.15
2023-02-16T05:34:53.862Z,22.98
2023-02-16T05:37:21.465Z,20.92
2023-02-16T05:39:48.978Z,21.17
2023-02-16T05:42:16.500Z,22.92
2023-02-16T05:44:44.034Z,22.23
2023-02-16T05:47:11.704Z,24.10
2023-02-16T05:49:39.350Z,21.95
2023-02-16T05:52:06.891Z,24.42
2023-02-16T05:54:34.649Z,22.42
2023-02-16T05:57:02.179Z,21.50
2023-02-16T05:59:29.784Z,22.27
2023-02-16T06:01:57.393Z,23.00
2023-02-16T06:04:25.182Z,116.35
2023-02-16T06:06:52.779Z,34.03
2023-02-16T06:09:20.564Z,24.88
2023-02-16T06:11:48.239Z,22.77
2023-02-16T06:14:19.603Z,21.63
2023-02-16T06:16:48.486Z,20.65
2023-02-16T06:19:16.952Z,21.75
2023-02-16T06:21:44.662Z,21.63
2023-02-16T06:24:12.926Z,19.20
2023-02-16T06:26:40.734Z,21.38
2023-02-16T06:29:08.931Z,22.15
2023-02-16T06:31:37.140Z,21.00
2023-02-16T06:34:05.281Z,24.45
2023-02-16T06:36:34.107Z,19.67
2023-02-16T06:39:01.781Z,18.63
2023-02-16T06:41:35.470Z,22.70
2023-02-16T06:44:05.820Z,20.40
2023-02-16T06:46:33.718Z,19.65
2023-02-16T06:49:01.351Z,17.98
2023-02-16T06:51:29.182Z,21.27
2023-02-16T06:53:56.792Z,22.33
2023-02-16T06:56:24.687Z,21.50
2023-02-16T06:58:52.364Z,22.73
2023-02-16T07:01:23.054Z,21.30
2023-02-16T07:03:51.848Z,21.48
2023-02-16T07:06:20.138Z,19.67
2023-02-16T07:08:47.817Z,19.17
2023-02-16T07:11:15.632Z,20.25
2023-02-16T07:13:43.254Z,17.88
2023-02-16T07:16:11.185Z,19.85
2023-02-16T07:18:39.084Z,19.05
2023-02-16T07:21:07.218Z,18.60
2023-02-16T07:23:35.095Z,20.35
2023-02-16T07:26:02.771Z,18.30
2023-02-16T07:28:30.395Z,20.17
2023-02-16T07:30:58.042Z,18.52
2023-02-16T07:33:25.647Z,16.92
2023-02-16T07:35:53.226Z,18.90
2023-02-16T07:38:21.877Z,21.00
2023-02-16T07:40:49.432Z,19.17
2023-02-16T07:43:18.561Z,16.67
2023-02-16T07:45:46.378Z,17.48
2023-02-16T07:48:14.105Z,15.55
2023-02-16T07:50:41.738Z,20.83
2023-02-16T07:53:11.192Z,17.17
2023-02-16T07:55:40.950Z,16.53
2023-02-16T07:58:08.854Z,21.05
2023-02-16T08:00:36.681Z,18.45
2023-02-16T08:03:04.848Z,17.40
2023-02-16T08:05:34.691Z,17.77
2023-02-16T08:08:02.299Z,16.85
2023-02-16T08:10:29.956Z,19.30
2023-02-16T08:12:58.511Z,18.88
2023-02-16T08:15:26.045Z,16.20
2023-02-16T08:17:53.604Z,16.10
2023-02-16T08:20:23.806Z,19.00
2023-02-16T08:22:56.173Z,15.95
2023-02-16T08:25:23.725Z,18.85
2023-02-16T08:27:51.255Z,22.05
2023-02-16T08:30:20.411Z,17.20
2023-02-16T08:32:50.757Z,15.85
2023-02-16T08:35:18.461Z,20.27
2023-02-16T08:37:46.724Z,16.75
2023-02-16T08:40:14.413Z,18.95
2023-02-16T08:42:42.041Z,18.85
2023-02-16T08:45:09.902Z,18.35
2023-02-16T08:47:37.547Z,18.55
2023-02-16T08:50:05.272Z,18.13
2023-02-16T08:52:32.810Z,20.00
2023-02-16T08:55:00.472Z,18.05
2023-02-16T08:57:28.011Z,18.65
2023-02-16T09:00:14.306Z,17.50
2023-02-16T09:02:41.953Z,15.23
2023-02-16T09:05:10.013Z,16.75
2023-02-16T09:07:37.587Z,16.27
2023-02-16T09:10:05.957Z,18.33
2023-02-16T09:12:35.271Z,18.67
2023-02-16T09:15:02.960Z,17.45
2023-02-16T09:17:31.054Z,18.38
2023-02-16T09:19:58.733Z,18.98
2023-02-16T09:22:26.949Z,19.73
2023-02-16T09:24:54.539Z,15.25
2023-02-16T09:27:22.279Z,14.27
2023-02-16T09:29:49.864Z,13.15
2023-02-16T09:32:17.465Z,15.10
2023-02-16T09:34:45.050Z,16.00
2023-02-16T09:37:14.523Z,11.52
2023-02-16T09:39:42.089Z,12.32
2023-02-16T09:42:12.847Z,11.07
2023-02-16T09:44:40.432Z,11.82
2023-02-16T09:47:21.992Z,12.65
2023-02-16T09:49:50.104Z,13.60
2023-02-16T09:52:36.289Z,13.48
2023-02-16T09:55:08.119Z,14.25
2023-02-16T09:57:35.847Z,11.35
2023-02-16T10:00:06.593Z,13.63
2023-02-16T10:02:57.272Z,18.27
2023-02-16T10:05:27.486Z,12.48
2023-02-16T10:07:57.836Z,15.32
2023-02-16T10:10:28.233Z,14.55
2023-02-16T10:13:09.212Z,15.43
2023-02-16T10:15:40.154Z,16.70
2023-02-16T10:18:29.359Z,14.87
2023-02-16T10:20:59.755Z,15.55
2023-02-16T10:23:33.466Z,15.48
2023-02-16T10:26:01.393Z,11.55
2023-02-16T10:28:28.982Z,15.13
2023-02-16T10:31:05.742Z,16.23
2023-02-16T10:33:47.519Z,13.10
2023-02-16T10:36:26.701Z,14.00
2023-02-16T10:38:58.714Z,12.52
2023-02-16T10:41:33.673Z,13.80
2023-02-16T10:44:09.646Z,12.50
2023-02-16T10:46:41.569Z,13.90
2023-02-16T10:49:12.776Z,13.30
2023-02-16T10:51:41.561Z,15.77
2023-02-16T10:54:14.129Z,11.38
2023-02-16T10:56:44.520Z,12.02
2023-02-16T10:59:17.267Z,14.57
2023-02-16T11:01:46.597Z,13.75
2023-02-16T11:04:33.018Z,11.77
2023-02-16T11:07:08.404Z,12.48
2023-02-16T11:09:36.285Z,14.20
2023-02-16T11:12:15.135Z,12.43
2023-02-16T11:14:47.980Z,11.25
2023-02-16T11:17:17.662Z,10.73
2023-02-16T11:19:50.373Z,11.13
2023-02-16T11:22:47.201Z,11.80
2023-02-16T11:25:21.175Z,12.00
2023-02-16T11:27:57.183Z,12.35
2023-02-16T11:30:38.484Z,9.35
2023-02-16T11:33:19.313Z,12.45
2023-02-16T11:35:47.344Z,13.02
2023-02-16T11:38:50.535Z,8.57
2023-02-16T11:41:24.150Z,9.32
2023-02-16T11:43:52.400Z,9.43
2023-02-16T11:46:21.730Z,8.23
2023-02-16T11:48:49.370Z,8.80
2023-02-16T11:51:29.189Z,12.15
2023-02-16T11:54:02.179Z,10.57
2023-02-16T11:56:31.619Z,9.40
2023-02-16T11:59:20.702Z,11.20
2023-02-16T12:02:06.860Z,9.30
2023-02-16T12:04:52.970Z,9.30
2023-02-16T12:07:29.581Z,11.35
2023-02-16T12:10:03.458Z,10.38
2023-02-16T12:13:09.699Z,11.52
2023-02-16T12:15:43.846Z,8.32
2023-02-16T12:18:23.743Z,9.55
2023-02-16T12:20:55.554Z,7.82
2023-02-16T12:23:23.075Z,8.10
2023-02-16T12:25:54.313Z,8.20
2023-02-16T12:28:40.756Z,9.45
2023-02-16T12:31:30.037Z,7.28
2023-02-16T12:34:16.291Z,8.02
2023-02-16T12:36:47.059Z,9.32
2023-02-16T12:39:19.620Z,10.03
2023-02-16T12:41:53.196Z,6.70
2023-02-16T12:44:42.615Z,7.97
2023-02-16T12:47:13.574Z,8.98
2023-02-16T12:49:59.423Z,6.70
2023-02-16T12:52:26.922Z,10.27
2023-02-16T12:55:11.108Z,8.65
2023-02-16T12:57:44.484Z,8.68
2023-02-16T13:00:17.695Z,7.50
2023-02-16T13:02:49.107Z,6.78
2023-02-16T13:05:23.044Z,8.80
2023-02-16T13:07:53.549Z,7.72
2023-02-16T13:10:27.879Z,7.18
2023-02-16T13:12:55.542Z,6.18
2023-02-16T13:15:31.399Z,8.02
2023-02-16T13:18:01.572Z,8.35
2023-02-16T13:20:30.230Z,9.18
2023-02-16T13:23:20.904Z,8.30
2023-02-16T13:25:54.329Z,8.30
2023-02-16T13:28:40.617Z,8.95
2023-02-16T13:31:15.312Z,9.68
2023-02-16T13:33:43.074Z,7.95
2023-02-16T13:36:18.870Z,7.68
2023-02-16T13:39:06.756Z,8.85
2023-02-16T13:41:43.451Z,10.48
2023-02-16T13:44:14.102Z,7.55
2023-02-16T13:46:50.227Z,7.20
2023-02-16T13:49:27.145Z,8.00
2023-02-16T13:51:54.731Z,10.45
2023-02-16T13:54:34.372Z,9.55
2023-02-16T13:57:05.824Z,9.05
2023-02-16T13:59:36.908Z,7.93
2023-02-16T14:02:11.002Z,8.23
2023-02-16T14:04:38.670Z,9.07
2023-02-16T14:07:10.246Z,8.23
2023-02-16T14:09:37.834Z,8.68
2023-02-16T14:12:12.190Z,8.43
2023-02-16T14:14:42.911Z,8.88
2023-02-16T14:17:22.638Z,12.88
2023-02-16T14:20:02.118Z,8.70
2023-02-16T14:22:32.479Z,8.82
2023-02-16T14:25:01.889Z,16.02
2023-02-16T14:27:43.759Z,7.88
2023-02-16T14:30:26.413Z,8.95
2023-02-16T14:32:57.554Z,7.50
2023-02-16T14:35:30.762Z,7.15
2023-02-16T14:37:59.945Z,6.88
2023-02-16T14:40:36.379Z,7.28
2023-02-16T14:43:06.699Z,7.28
2023-02-16T14:45:53.518Z,7.15
2023-02-16T14:48:31.585Z,8.80
2023-02-16T14:51:28.870Z,7.15
2023-02-16T14:54:09.750Z,7.50
2023-02-16T14:56:43.211Z,10.55
2023-02-16T14:59:17.687Z,6.82
2023-02-16T15:01:46.008Z,7.50
2023-02-16T15:04:13.640Z,8.30
2023-02-16T15:06:43.746Z,8.88
2023-02-16T15:09:16.656Z,8.07
2023-02-16T15:12:08.933Z,8.75
2023-02-16T15:17:07.148Z,9.02
2023-02-16T15:19:34.735Z,8.23
2023-02-16T15:22:17.462Z,8.63
2023-02-16T15:24:45.025Z,11.15
2023-02-16T15:27:21.399Z,8.35
2023-02-16T15:30:02.696Z,7.75
2023-02-16T15:32:30.306Z,7.45
2023-02-16T15:34:58.855Z,7.10
2023-02-16T15:37:34.169Z,8.57
2023-02-16T15:40:25.809Z,14.00
2023-02-16T15:42:55.004Z,6.75
2023-02-16T15:45:48.901Z,13.70
2023-02-16T15:48:21.228Z,8.63
2023-02-16T15:50:49.608Z,7.70
2023-02-16T15:53:23.850Z,14.30
2023-02-16T15:55:52.539Z,5.97
2023-02-16T15:58:20.490Z,7.80
2023-02-16T16:00:48.302Z,10.50
2023-02-16T16:03:17.722Z,11.02
2023-02-16T16:05:55.697Z,18.42
2023-02-16T16:08:25.334Z,8.27
2023-02-16T16:10:53.206Z,15.77
2023-02-16T16:13:28.199Z,7.65
2023-02-16T16:16:01.481Z,20.17
2023-02-16T16:18:39.933Z,26.30
2023-02-16T16:21:16.697Z,13.85
2023-02-16T16:23:54.061Z,17.30
2023-02-16T16:26:23.438Z,10.02
2023-02-16T16:28:51.541Z,8.57
2023-02-16T16:31:32.649Z,11.88
2023-02-16T16:34:07.827Z,18.23
2023-02-16T16:36:42.006Z,18.23
2023-02-16T16:39:20.933Z,25.20
2023-02-16T16:42:08.727Z,27.67
2023-02-16T16:44:40.904Z,17.45
2023-02-16T16:47:27.339Z,16.45
2023-02-16T16:49:56.737Z,36.03
2023-02-16T16:52:31.765Z,59.60
2023-02-16T16:54:59.433Z,61.08
2023-02-16T16:57:27.320Z,65.72
2023-02-16T16:59:54.891Z,43.58
2023-02-16T17:02:22.548Z,62.03
2023-02-16T17:04:50.134Z,49.13
2023-02-16T17:07:17.697Z,54.17
2023-02-16T17:09:45.199Z,54.03
2023-02-16T17:12:12.771Z,74.18
2023-02-16T17:14:40.508Z,55.47
2023-02-16T17:17:09.064Z,21.25
2023-02-16T17:19:36.834Z,34.67
2023-02-16T17:22:11.244Z,28.33
2023-02-16T17:24:38.760Z,23.02
2023-02-16T17:27:06.488Z,16.15
2023-02-16T17:29:34.041Z,25.10
2023-02-16T17:32:02.036Z,10.98
2023-02-16T17:34:29.636Z,8.85
2023-02-16T17:37:02.874Z,13.35
2023-02-16T17:39:30.789Z,19.00
2023-02-16T17:41:58.526Z,16.98
2023-02-16T17:44:26.080Z,13.63
2023-02-16T17:46:54.073Z,23.55
2023-02-16T17:49:21.602Z,14.20
2023-02-16T17:51:49.136Z,9.75
2023-02-16T17:54:16.695Z,12.55
2023-02-16T17:56:45.668Z,13.45
2023-02-16T17:59:15.213Z,8.80
2023-02-16T18:01:43.866Z,10.68
2023-02-16T18:04:11.599Z,13.23
2023-02-16T18:06:39.245Z,9.40
2023-02-16T18:09:07.663Z,8.00
2023-02-16T18:11:35.288Z,9.93
2023-02-16T18:14:02.865Z,8.85
2023-02-16T18:16:30.439Z,10.95
2023-02-16T18:18:58.276Z,8.93
2023-02-16T18:21:25.874Z,15.23
2023-02-16T18:23:53.452Z,13.40
2023-02-16T18:26:21.262Z,9.30
2023-02-16T18:28:49.800Z,10.27
2023-02-16T18:31:17.381Z,9.38
2023-02-16T18:33:45.089Z,13.38
2023-02-16T18:36:12.672Z,11.02
2023-02-16T18:38:40.233Z,10.07
2023-02-16T18:41:08.977Z,10.90
2023-02-16T18:43:37.237Z,11.98
2023-02-16T18:46:06.040Z,11.27
2023-02-16T18:48:33.822Z,14.57
2023-02-16T18:51:08.297Z,11.95
2023-02-16T18:53:38.848Z,12.63
2023-02-16T18:56:07.817Z,11.77
2023-02-16T18:58:35.993Z,13.30
2023-02-16T19:01:14.219Z,11.40
2023-02-16T19:03:42.006Z,10.55
2023-02-16T19:06:09.663Z,11.00
2023-02-16T19:08:37.235Z,11.07
2023-02-16T19:11:04.873Z,11.50
2023-02-16T19:13:32.408Z,9.55
2023-02-16T19:15:59.939Z,10.18
2023-02-16T19:18:29.110Z,12.88
2023-02-16T19:20:56.728Z,14.40
2023-02-16T19:23:24.350Z,16.17
2023-02-16T19:25:51.900Z,12.05
2023-02-16T19:28:19.479Z,12.55
2023-02-16T19:30:49.258Z,12.98
2023-02-16T19:33:16.976Z,13.43
2023-02-16T19:35:44.577Z,11.68
2023-02-16T19:38:12.204Z,12.10
2023-02-16T19:40:39.922Z,12.50
2023-02-16T19:43:07.613Z,13.00
2023-02-16T19:45:37.461Z,13.48
2023-02-16T19:48:05.165Z,13.75
2023-02-16T19:50:32.728Z,15.23
2023-02-16T19:53:00.596Z,11.63
2023-02-16T19:55:28.221Z,11.90
2023-02-16T19:57:55.788Z,9.95
2023-02-16T20:00:23.336Z,13.93
2023-02-16T20:02:51.020Z,13.10
2023-02-16T20:05:18.652Z,11.63
2023-02-16T20:07:46.236Z,12.77
2023-02-16T20:10:13.787Z,10.95
2023-02-16T20:12:41.343Z,11.25
2023-02-16T20:15:09.132Z,15.35
2023-02-16T20:17:36.724Z,30.08
2023-02-16T20:20:05.264Z,13.35
2023-02-16T20:22:32.829Z,12.32
2023-02-16T20:25:00.373Z,9.45
2023-02-16T20:27:28.462Z,12.27
2023-02-16T20:29:56.381Z,10.48
2023-02-16T20:32:25.587Z,11.35
2023-02-16T20:34:53.168Z,10.55
2023-02-16T20:37:21.697Z,12.07
2023-02-16T20:39:49.443Z,13.18
2023-02-16T20:42:16.977Z,11.13
2023-02-16T20:44:44.512Z,9.68
2023-02-16T20:47:12.225Z,11.30
2023-02-16T20:49:39.922Z,15.02
2023-02-16T20:52:09.366Z,8.50
2023-02-16T20:54:37.865Z,12.27
2023-02-16T20:57:07.043Z,9.65
2023-02-16T20:59:35.671Z,10.45
2023-02-16T21:02:04.531Z,13.95
2023-02-16T21:04:32.130Z,8.02
2023-02-16T21:06:59.683Z,9.63
2023-02-16T21:09:27.236Z,10.07
2023-02-16T21:11:54.865Z,10.05
2023-02-16T21:14:22.455Z,11.32
2023-02-16T21:16:50.062Z,11.35
2023-02-16T21:19:23.354Z,9.93
2023-02-16T21:21:51.648Z,13.60
2023-02-16T21:24:19.234Z,9.30
2023-02-16T21:26:46.829Z,10.20
2023-02-16T21:29:14.422Z,9.75
2023-02-16T21:31:42.119Z,13.48
2023-02-16T21:34:09.677Z,8.07
2023-02-16T21:36:38.126Z,9.05
2023-02-16T21:39:05.699Z,10.43
2023-02-16T21:41:33.328Z,9.52
2023-02-16T21:44:10.097Z,12.27
2023-02-16T21:46:41.868Z,8.15
2023-02-16T21:49:12.947Z,10.35
2023-02-16T21:51:40.993Z,10.57
2023-02-16T21:54:09.417Z,11.90
2023-02-16T21:56:39.340Z,9.43
2023-02-16T21:59:08.798Z,8.18
2023-02-16T22:01:38.497Z,7.40
2023-02-16T22:04:06.413Z,8.40
2023-02-16T22:06:35.521Z,9.30
2023-02-16T22:09:05.685Z,7.82
2023-02-16T22:11:33.218Z,9.75
2023-02-16T22:14:01.528Z,8.80
2023-02-16T22:16:30.132Z,7.40
2023-02-16T22:19:01.626Z,9.85
2023-02-16T22:21:29.901Z,9.07
2023-02-16T22:23:58.162Z,8.55
2023-02-16T22:26:27.311Z,6.65
2023-02-16T22:28:54.952Z,8.90
2023-02-16T22:31:24.877Z,8.48
2023-02-16T22:33:59.661Z,9.30
2023-02-16T22:36:27.330Z,8.90
2023-02-16T22:38:55.259Z,7.75
2023-02-16T22:41:23.471Z,7.97
2023-02-16T22:43:59.148Z,7.32
2023-02-16T22:46:27.268Z,7.90
2023-02-16T22:48:58.231Z,8.95
2023-02-16T22:51:27.621Z,7.57
2023-02-16T22:53:55.710Z,8.18
2023-02-16T22:56:23.305Z,7.15
2023-02-16T22:58:50.880Z,8.68
2023-02-16T23:01:19.900Z,10.52
2023-02-16T23:03:56.498Z,8.65
2023-02-16T23:06:25.697Z,10.02
2023-02-16T23:08:54.529Z,7.35
2023-02-16T23:11:22.080Z,7.95
2023-02-16T23:13:49.639Z,9.50
2023-02-16T23:16:18.465Z,9.75
2023-02-16T23:18:46.596Z,9.38
2023-02-16T23:21:17.215Z,8.00
2023-02-16T23:23:44.921Z,8.50
2023-02-16T23:26:12.460Z,8.13
2023-02-16T23:28:41.524Z,9.50
2023-02-16T23:31:09.518Z,9.27
2023-02-16T23:33:37.198Z,8.75
2023-02-16T23:36:05.232Z,10.82
2023-02-16T23:38:32.992Z,7.32
2023-02-16T23:41:05.122Z,10.05
2023-02-16T23:43:32.947Z,9.40
2023-02-16T23:46:01.499Z,9.20
2023-02-16T23:48:29.532Z,10.88
2023-02-16T23:50:57.135Z,9.32
2023-02-16T23:53:25.723Z,8.70
2023-02-16T23:56:07.386Z,9.50
2023-02-16T23:58:36.690Z,9.07
